createdAt,value
2023-05-13T00:02:00.900Z,99.90
2023-05-13T00:04:29.396Z,99.90
2023-05-13T00:09:57.949Z,99.90
2023-05-13T00:12:26.694Z,99.90
2023-05-13T00:14:54.763Z,99.90
2023-05-13T00:17:23.330Z,99.90
2023-05-13T00:19:51.356Z,99.90
2023-05-13T00:22:20.451Z,99.90
2023-05-13T00:24:50.262Z,99.90
2023-05-13T00:27:21.974Z,99.90
2023-05-13T00:29:50.416Z,99.90
2023-05-13T00:32:19.293Z,99.90
2023-05-13T00:34:47.331Z,99.90
2023-05-13T00:37:16.203Z,99.90
2023-05-13T00:39:44.653Z,99.90
2023-05-13T00:42:13.723Z,99.90
2023-05-13T00:44:44.170Z,99.90
2023-05-13T00:47:12.801Z,99.90
2023-05-13T00:49:42.180Z,99.90
2023-05-13T00:52:10.320Z,99.90
2023-05-13T00:54:39.572Z,99.90
2023-05-13T00:57:08.566Z,99.90
2023-05-13T00:59:36.918Z,99.90
2023-05-13T01:02:17.603Z,99.90
2023-05-13T01:04:53.028Z,99.90
2023-05-13T01:07:30.491Z,99.90
2023-05-13T01:10:08.417Z,99.90
2023-05-13T01:12:41.483Z,99.90
2023-05-13T01:15:12.799Z,99.90
2023-05-13T01:17:54.092Z,99.90
2023-05-13T01:20:25.214Z,99.90
2023-05-13T01:22:57.047Z,99.90
2023-05-13T01:25:26.052Z,99.90
2023-05-13T01:27:55.847Z,99.90
2023-05-13T01:30:24.497Z,99.90
2023-05-13T01:32:53.490Z,99.90
2023-05-13T01:35:27.421Z,99.90
2023-05-13T01:37:59.061Z,99.90
2023-05-13T01:40:32.899Z,99.90
2023-05-13T01:43:07.314Z,99.90
2023-05-13T01:45:38.044Z,99.90
2023-05-13T01:48:06.650Z,99.90
2023-05-13T01:50:59.387Z,99.90
2023-05-13T01:53:28.802Z,99.90
2023-05-13T01:55:56.979Z,99.90
2023-05-13T01:58:26.049Z,99.90
2023-05-13T02:00:54.653Z,99.90
2023-05-13T02:03:23.104Z,99.90
2023-05-13T02:05:51.798Z,99.90
2023-05-13T02:08:21.545Z,99.90
2023-05-13T02:10:59.027Z,99.90
2023-05-13T02:13:29.437Z,99.90
2023-05-13T02:15:58.182Z,99.90
2023-05-13T02:18:26.350Z,99.90
2023-05-13T02:20:56.280Z,99.90
2023-05-13T02:23:25.205Z,99.90
2023-05-13T02:25:53.639Z,99.90
2023-05-13T02:28:23.044Z,99.90
2023-05-13T02:30:53.989Z,99.90
2023-05-13T02:33:24.085Z,99.90
2023-05-13T02:35:54.130Z,99.90
2023-05-13T02:38:22.764Z,99.90
2023-05-13T02:40:51.615Z,99.90
2023-05-13T02:43:23.504Z,99.90
2023-05-13T02:45:57.750Z,99.90
2023-05-13T02:48:26.590Z,99.90
2023-05-13T02:50:55.346Z,99.90
2023-05-13T02:53:24.042Z,99.90
2023-05-13T02:55:59.978Z,99.90
2023-05-13T02:58:29.591Z,99.90
2023-05-13T03:00:58.127Z,99.90
2023-05-13T03:03:27.218Z,99.90
2023-05-13T03:05:55.309Z,99.90
2023-05-13T03:08:23.762Z,99.90
2023-05-13T03:10:53.012Z,99.90
2023-05-13T03:13:21.133Z,99.90
2023-05-13T03:15:51.428Z,99.90
2023-05-13T03:18:20.119Z,99.90
2023-05-13T03:20:51.458Z,99.90
2023-05-13T03:23:19.875Z,99.90
2023-05-13T03:25:51.480Z,99.90
2023-05-13T03:28:22.107Z,99.90
2023-05-13T03:30:52.103Z,99.90
2023-05-13T03:33:23.162Z,99.90
2023-05-13T03:35:51.638Z,99.90
2023-05-13T03:38:25.847Z,99.90
2023-05-13T03:40:54.489Z,99.90
2023-05-13T03:43:22.562Z,99.90
2023-05-13T03:45:57.971Z,99.90
2023-05-13T03:48:41.024Z,99.90
2023-05-13T03:51:10.101Z,99.90
2023-05-13T03:53:38.164Z,99.90
2023-05-13T03:56:06.735Z,99.90
2023-05-13T03:58:35.652Z,99.90
2023-05-13T04:01:07.840Z,99.90
2023-05-13T04:03:36.819Z,99.90
2023-05-13T04:06:05.330Z,99.90
2023-05-13T04:08:33.342Z,99.90
2023-05-13T04:11:01.746Z,99.90
2023-05-13T04:13:30.174Z,99.90
2023-05-13T04:15:59.198Z,99.90
2023-05-13T04:18:30.513Z,99.90
2023-05-13T04:20:59.412Z,99.90
2023-05-13T04:23:27.491Z,99.90
2023-05-13T04:25:58.208Z,99.90
2023-05-13T04:28:26.670Z,99.90
2023-05-13T04:30:54.823Z,99.90
2023-05-13T04:33:24.845Z,99.90
2023-05-13T04:35:55.700Z,99.90
2023-05-13T04:38:26.144Z,99.90
2023-05-13T04:40:54.201Z,99.90
2023-05-13T04:43:30.949Z,99.90
2023-05-13T04:46:01.622Z,99.90
2023-05-13T04:48:30.885Z,99.90
2023-05-13T04:51:06.996Z,99.90
2023-05-13T04:53:36.985Z,99.90
2023-05-13T04:56:08.107Z,99.90
2023-05-13T04:58:39.094Z,99.90
2023-05-13T05:01:07.679Z,99.90
2023-05-13T05:03:37.159Z,99.90
2023-05-13T05:06:07.883Z,99.90
2023-05-13T05:08:36.454Z,99.90
2023-05-13T05:11:04.459Z,99.90
2023-05-13T05:13:37.195Z,99.90
2023-05-13T05:16:08.013Z,99.90
2023-05-13T05:18:37.000Z,99.90
2023-05-13T05:21:08.260Z,99.90
2023-05-13T05:23:36.934Z,99.90
2023-05-13T05:26:11.791Z,99.90
2023-05-13T05:28:44.168Z,99.90
2023-05-13T05:31:15.223Z,99.90
2023-05-13T05:33:43.558Z,99.90
2023-05-13T05:36:14.926Z,99.90
2023-05-13T05:38:43.026Z,99.90
2023-05-13T05:41:12.482Z,99.90
2023-05-13T05:43:40.626Z,99.90
2023-05-13T05:46:10.071Z,99.90
2023-05-13T05:48:40.263Z,99.90
2023-05-13T05:51:08.987Z,99.90
2023-05-13T05:53:41.381Z,99.90
2023-05-13T05:56:14.940Z,99.90
2023-05-13T05:58:44.128Z,99.90
2023-05-13T06:01:12.886Z,99.90
2023-05-13T06:03:41.096Z,99.90
2023-05-13T06:06:10.750Z,99.90
2023-05-13T06:08:40.168Z,99.90
2023-05-13T06:11:09.103Z,99.90
2023-05-13T06:13:37.195Z,99.90
2023-05-13T06:16:09.527Z,99.90
2023-05-13T06:18:39.494Z,99.90
2023-05-13T06:21:07.539Z,99.90
2023-05-13T06:23:35.580Z,99.90
2023-05-13T06:26:07.116Z,99.90
2023-05-13T06:28:36.679Z,99.90
2023-05-13T06:31:04.971Z,99.90
2023-05-13T06:33:33.439Z,99.90
2023-05-13T06:36:05.068Z,99.90
2023-05-13T06:38:35.161Z,99.90
2023-05-13T06:41:03.826Z,99.90
2023-05-13T06:43:37.331Z,99.90
2023-05-13T06:46:22.882Z,99.90
2023-05-13T06:48:54.018Z,99.90
2023-05-13T06:51:22.145Z,99.90
2023-05-13T06:53:50.635Z,99.90
2023-05-13T06:56:19.241Z,99.90
2023-05-13T06:58:48.584Z,99.90
2023-05-13T07:01:17.000Z,99.90
2023-05-13T07:03:45.771Z,99.90
2023-05-13T07:06:15.100Z,99.90
2023-05-13T07:08:43.132Z,99.90
2023-05-13T07:11:11.622Z,99.90
2023-05-13T07:13:40.100Z,99.90
2023-05-13T07:16:09.560Z,99.90
2023-05-13T07:18:38.143Z,99.90
2023-05-13T07:21:07.608Z,99.90
2023-05-13T07:23:35.878Z,99.90
2023-05-13T07:26:04.556Z,99.90
2023-05-13T07:28:33.779Z,99.90
2023-05-13T07:31:02.067Z,99.90
2023-05-13T07:33:31.589Z,99.90
2023-05-13T07:36:01.153Z,99.90
2023-05-13T07:38:29.704Z,99.90
2023-05-13T07:40:59.319Z,99.90
2023-05-13T07:43:28.282Z,99.90
2023-05-13T07:45:56.511Z,99.90
2023-05-13T07:48:27.981Z,99.90
2023-05-13T07:50:58.999Z,99.90
2023-05-13T07:53:27.937Z,99.90
2023-05-13T07:55:56.539Z,99.90
2023-05-13T07:58:27.286Z,99.90
2023-05-13T08:00:57.229Z,99.90
2023-05-13T08:03:25.445Z,99.90
2023-05-13T08:05:54.228Z,99.90
2023-05-13T08:08:24.559Z,99.90
2023-05-13T08:10:52.989Z,99.90
2023-05-13T08:13:21.845Z,99.90
2023-05-13T08:15:50.813Z,99.90
2023-05-13T08:18:19.396Z,99.90
2023-05-13T08:20:47.460Z,99.90
2023-05-13T08:23:16.080Z,99.90
2023-05-13T08:25:45.897Z,99.90
2023-05-13T08:28:13.927Z,99.90
2023-05-13T08:30:44.254Z,99.90
2023-05-13T08:33:14.921Z,99.90
2023-05-13T08:35:44.848Z,99.90
2023-05-13T08:38:13.651Z,99.90
2023-05-13T08:40:43.774Z,99.90
2023-05-13T08:43:17.115Z,99.90
2023-05-13T08:45:47.874Z,99.90
2023-05-13T08:48:28.236Z,99.90
2023-05-13T08:50:56.432Z,99.90
2023-05-13T08:53:27.407Z,99.90
2023-05-13T08:55:56.449Z,99.90
2023-05-13T08:58:26.145Z,99.90
2023-05-13T09:00:55.351Z,99.90
2023-05-13T09:03:23.886Z,99.90
2023-05-13T09:05:51.941Z,99.90
2023-05-13T09:08:19.955Z,99.90
2023-05-13T09:10:50.211Z,99.90
2023-05-13T09:13:19.657Z,99.90
2023-05-13T09:15:51.059Z,99.90
2023-05-13T09:18:20.612Z,99.90
2023-05-13T09:20:48.684Z,99.90
2023-05-13T09:23:16.858Z,99.90
2023-05-13T09:25:47.287Z,99.90
2023-05-13T09:28:16.833Z,99.90
2023-05-13T09:30:46.587Z,99.90
2023-05-13T09:33:19.685Z,99.90
2023-05-13T09:35:53.369Z,99.90
2023-05-13T09:38:23.482Z,99.90
2023-05-13T09:40:55.432Z,99.90
2023-05-13T09:43:27.774Z,99.90
2023-05-13T09:45:56.874Z,99.90
2023-05-13T09:48:28.783Z,99.90
2023-05-13T09:50:58.037Z,99.90
2023-05-13T09:53:26.768Z,99.90
2023-05-13T09:55:56.364Z,99.90
2023-05-13T09:58:25.513Z,99.90
2023-05-13T10:00:54.256Z,99.90
2023-05-13T10:03:23.726Z,99.90
2023-05-13T10:05:54.008Z,99.90
2023-05-13T10:08:23.030Z,99.90
2023-05-13T10:10:55.439Z,99.90
2023-05-13T10:13:26.052Z,99.90
2023-05-13T10:15:56.195Z,99.90
2023-05-13T10:18:25.465Z,99.90
2023-05-13T10:20:56.552Z,99.90
2023-05-13T10:23:25.164Z,99.90
2023-05-13T10:25:54.964Z,99.90
2023-05-13T10:30:28.062Z,99.90
2023-05-13T10:32:56.209Z,99.90
2023-05-13T10:35:29.068Z,99.90
2023-05-13T10:38:10.696Z,99.90
2023-05-13T10:41:09.882Z,99.90
2023-05-13T10:43:38.057Z,99.90
2023-05-13T10:46:08.724Z,99.90
2023-05-13T10:48:44.716Z,99.90
2023-05-13T10:51:16.421Z,99.90
2023-05-13T10:53:48.073Z,99.90
2023-05-13T10:56:17.686Z,99.90
2023-05-13T10:59:00.288Z,99.90
2023-05-13T11:01:31.583Z,99.90
2023-05-13T11:04:01.985Z,99.90
2023-05-13T11:06:35.090Z,99.90
2023-05-13T11:09:06.953Z,99.90
2023-05-13T11:11:37.398Z,99.90
2023-05-13T11:14:15.214Z,99.90
2023-05-13T11:16:49.556Z,99.90
2023-05-13T11:19:23.242Z,99.90
2023-05-13T11:21:53.939Z,99.90
2023-05-13T11:24:22.944Z,99.90
2023-05-13T11:26:56.619Z,99.90
2023-05-13T11:29:30.483Z,99.90
2023-05-13T11:32:02.086Z,99.90
2023-05-13T11:34:32.122Z,99.90
2023-05-13T11:37:10.013Z,99.90
2023-05-13T11:39:40.754Z,99.90
2023-05-13T11:42:11.195Z,99.90
2023-05-13T11:44:47.587Z,99.90
2023-05-13T11:47:28.569Z,99.90
2023-05-13T11:49:57.170Z,99.90
2023-05-13T11:52:26.077Z,99.90
2023-05-13T11:54:56.263Z,99.90
2023-05-13T11:57:26.649Z,99.90
2023-05-13T12:00:01.140Z,99.90
2023-05-13T12:02:36.380Z,99.90
2023-05-13T12:05:10.325Z,99.90
2023-05-13T12:07:39.806Z,99.90
2023-05-13T12:10:10.508Z,99.90
2023-05-13T12:12:41.762Z,99.90
2023-05-13T12:15:15.188Z,99.90
2023-05-13T12:17:45.063Z,99.90
2023-05-13T12:20:16.929Z,99.90
2023-05-13T12:22:53.310Z,99.90
2023-05-13T12:25:41.810Z,99.90
2023-05-13T12:28:11.854Z,99.90
2023-05-13T12:30:42.472Z,99.90
2023-05-13T12:33:20.451Z,99.90
2023-05-13T12:35:50.020Z,99.90
2023-05-13T12:38:20.401Z,99.90
2023-05-13T12:40:50.083Z,99.90
2023-05-13T12:43:20.089Z,99.90
2023-05-13T12:45:53.398Z,99.90
2023-05-13T12:48:26.371Z,99.90
2023-05-13T12:50:56.678Z,99.90
2023-05-13T12:53:24.789Z,99.90
2023-05-13T12:55:53.283Z,99.90
2023-05-13T12:58:21.325Z,99.90
2023-05-13T13:00:50.061Z,99.90
2023-05-13T13:03:19.518Z,99.90
2023-05-13T13:05:51.993Z,99.90
2023-05-13T13:08:20.509Z,99.90
2023-05-13T13:10:48.473Z,99.90
2023-05-13T13:13:19.197Z,99.90
2023-05-13T13:15:49.160Z,99.90
2023-05-13T13:18:17.875Z,99.90
2023-05-13T13:20:46.710Z,99.90
2023-05-13T13:23:16.233Z,99.90
2023-05-13T13:25:44.873Z,99.90
2023-05-13T13:28:14.276Z,99.60
2023-05-13T13:30:46.368Z,99.00
2023-05-13T13:33:16.460Z,99.90
2023-05-13T13:35:45.190Z,99.90
2023-05-13T13:38:13.567Z,99.90
2023-05-13T13:40:45.183Z,99.20
2023-05-13T13:43:13.180Z,99.90
2023-05-13T13:45:41.773Z,98.90
2023-05-13T13:48:10.280Z,97.90
2023-05-13T13:50:38.351Z,99.00
2023-05-13T13:53:07.329Z,99.80
2023-05-13T13:55:35.411Z,99.90
2023-05-13T13:58:04.881Z,99.00
2023-05-13T14:00:33.437Z,99.60
2023-05-13T14:03:02.937Z,99.80
2023-05-13T14:05:31.423Z,99.70
2023-05-13T14:07:59.996Z,99.20
2023-05-13T14:10:28.058Z,99.30
2023-05-13T14:12:56.584Z,98.70
2023-05-13T14:15:31.751Z,98.90
2023-05-13T14:17:59.878Z,99.90
2023-05-13T14:20:29.324Z,99.90
2023-05-13T14:22:57.330Z,99.90
2023-05-13T14:25:25.902Z,99.90
2023-05-13T14:27:57.289Z,99.90
2023-05-13T14:30:30.016Z,99.90
2023-05-13T14:33:00.103Z,99.90
2023-05-13T14:35:30.190Z,99.90
2023-05-13T14:37:58.262Z,99.90
2023-05-13T14:40:26.733Z,99.90
2023-05-13T14:42:57.563Z,99.90
2023-05-13T14:45:26.979Z,99.90
2023-05-13T14:47:56.342Z,99.90
2023-05-13T14:50:25.207Z,99.90
2023-05-13T14:52:53.280Z,99.90
2023-05-13T14:55:21.387Z,99.90
2023-05-13T14:57:49.727Z,99.90
2023-05-13T15:00:18.886Z,99.90
2023-05-13T15:02:48.366Z,99.90
2023-05-13T15:05:17.336Z,99.90
2023-05-13T15:07:46.241Z,99.90
2023-05-13T15:10:14.289Z,99.90
2023-05-13T15:12:43.318Z,99.90
2023-05-13T15:15:14.261Z,99.90
2023-05-13T15:17:44.800Z,99.90
2023-05-13T15:20:15.429Z,99.90
2023-05-13T15:22:43.483Z,99.90
2023-05-13T15:25:12.235Z,99.90
2023-05-13T15:27:40.317Z,99.90
2023-05-13T15:30:09.345Z,99.90
2023-05-13T15:32:38.748Z,99.90
2023-05-13T15:35:08.235Z,99.90
2023-05-13T15:37:38.713Z,99.90
2023-05-13T15:40:11.345Z,99.90
2023-05-13T15:42:39.430Z,99.90
2023-05-13T15:45:09.237Z,99.90
2023-05-13T15:47:38.401Z,99.90
2023-05-13T15:50:07.344Z,99.90
2023-05-13T15:52:39.381Z,99.90
2023-05-13T15:55:08.213Z,99.90
2023-05-13T15:57:36.258Z,99.90
2023-05-13T16:00:05.781Z,99.90
2023-05-13T16:02:39.455Z,99.90
2023-05-13T16:05:15.725Z,99.90
2023-05-13T16:07:46.237Z,99.90
2023-05-13T16:10:15.689Z,99.90
2023-05-13T16:12:43.802Z,99.90
2023-05-13T16:15:12.643Z,99.90
2023-05-13T16:17:41.090Z,99.90
2023-05-13T16:20:11.702Z,99.90
2023-05-13T16:22:41.188Z,99.90
2023-05-13T16:25:12.727Z,99.90
2023-05-13T16:27:42.894Z,99.90
2023-05-13T16:30:11.435Z,99.90
2023-05-13T16:32:39.537Z,99.90
2023-05-13T16:35:11.534Z,99.90
2023-05-13T16:37:40.068Z,99.90
2023-05-13T16:40:11.409Z,99.90
2023-05-13T16:42:39.710Z,99.90
2023-05-13T16:45:09.445Z,99.90
2023-05-13T16:47:37.446Z,99.90
2023-05-13T16:50:08.349Z,99.90
2023-05-13T16:52:36.447Z,99.90
2023-05-13T16:55:04.646Z,99.90
2023-05-13T16:57:36.384Z,99.90
2023-05-13T17:00:04.803Z,99.90
2023-05-13T17:02:34.948Z,99.90
2023-05-13T17:05:03.063Z,99.90
2023-05-13T17:07:31.120Z,99.90
2023-05-13T17:09:59.373Z,99.90
2023-05-13T17:12:27.962Z,99.90
2023-05-13T17:14:57.377Z,99.90
2023-05-13T17:17:25.629Z,99.90
2023-05-13T17:19:54.470Z,99.90
2023-05-13T17:22:24.708Z,99.90
2023-05-13T17:24:53.451Z,99.90
2023-05-13T17:27:22.286Z,99.90
2023-05-13T17:29:50.415Z,99.90
2023-05-13T17:32:20.502Z,99.90
2023-05-13T17:34:51.272Z,99.90
2023-05-13T17:37:19.362Z,99.90
2023-05-13T17:39:48.577Z,99.90
2023-05-13T17:42:17.872Z,99.90
2023-05-13T17:44:46.840Z,99.90
2023-05-13T17:47:14.961Z,99.90
2023-05-13T17:49:45.011Z,99.90
2023-05-13T17:52:13.180Z,99.90
2023-05-13T17:54:41.353Z,99.90
2023-05-13T17:57:10.957Z,99.90
2023-05-13T17:59:40.504Z,99.90
2023-05-13T18:02:08.830Z,99.90
2023-05-13T18:04:37.249Z,99.90
2023-05-13T18:07:06.787Z,99.90
2023-05-13T18:09:35.560Z,99.90
2023-05-13T18:12:03.734Z,99.90
2023-05-13T18:14:34.082Z,99.90
2023-05-13T18:17:02.264Z,99.90
2023-05-13T18:19:30.335Z,99.90
2023-05-13T18:21:59.838Z,99.90
2023-05-13T18:24:29.233Z,99.90
2023-05-13T18:26:57.795Z,99.90
2023-05-13T18:29:26.483Z,99.90
2023-05-13T18:31:54.532Z,99.90
2023-05-13T18:34:23.207Z,99.90
2023-05-13T18:36:52.402Z,99.90
2023-05-13T18:39:22.879Z,99.90
2023-05-13T18:41:52.371Z,99.90
2023-05-13T18:44:20.981Z,99.90
2023-05-13T18:46:49.017Z,99.90
2023-05-13T18:49:20.392Z,99.90
2023-05-13T18:51:48.563Z,99.90
2023-05-13T18:54:16.561Z,99.90
2023-05-13T18:56:45.961Z,99.90
2023-05-13T18:59:15.393Z,99.90
2023-05-13T19:01:43.533Z,99.90
2023-05-13T19:04:13.631Z,99.90
2023-05-13T19:06:41.823Z,99.90
2023-05-13T19:09:10.297Z,99.90
2023-05-13T19:11:38.361Z,99.90
2023-05-13T19:14:09.395Z,99.90
2023-05-13T19:16:39.696Z,99.90
2023-05-13T19:19:07.859Z,99.90
2023-05-13T19:21:36.968Z,99.90
2023-05-13T19:24:06.200Z,99.90
2023-05-13T19:26:34.362Z,99.90
2023-05-13T19:29:02.824Z,99.90
2023-05-13T19:31:32.142Z,99.90
2023-05-13T19:34:02.399Z,99.90
2023-05-13T19:36:31.044Z,99.90
2023-05-13T19:39:01.647Z,99.90
2023-05-13T19:41:30.264Z,99.90
2023-05-13T19:43:58.230Z,99.90
2023-05-13T19:46:26.907Z,99.90
2023-05-13T19:48:55.002Z,99.90
2023-05-13T19:51:25.470Z,99.90
2023-05-13T19:53:54.293Z,99.90
2023-05-13T19:56:22.912Z,99.90
2023-05-13T19:58:51.499Z,99.90
2023-05-13T20:01:19.628Z,99.90
2023-05-13T20:03:47.801Z,99.90
2023-05-13T20:06:16.949Z,99.90
2023-05-13T20:08:46.365Z,99.90
2023-05-13T20:11:14.383Z,99.90
2023-05-13T20:13:42.865Z,99.90
2023-05-13T20:16:10.874Z,99.90
2023-05-13T20:18:39.885Z,99.90
2023-05-13T20:21:09.171Z,99.90
2023-05-13T20:23:37.185Z,99.90
2023-05-13T20:26:08.493Z,99.90
2023-05-13T20:28:37.732Z,99.90
2023-05-13T20:31:07.346Z,99.90
2023-05-13T20:33:35.677Z,99.90
2023-05-13T20:36:03.687Z,99.90
2023-05-13T20:38:32.288Z,99.90
2023-05-13T20:41:00.460Z,99.90
2023-05-13T20:43:32.266Z,99.90
2023-05-13T20:46:00.910Z,99.90
2023-05-13T20:48:32.084Z,99.90
2023-05-13T20:51:05.190Z,99.90
2023-05-13T20:53:34.376Z,99.90
2023-05-13T20:56:04.021Z,99.90
2023-05-13T20:58:33.972Z,99.90
2023-05-13T21:01:02.223Z,99.90
2023-05-13T21:03:31.374Z,99.90
2023-05-13T21:05:59.424Z,99.90
2023-05-13T21:08:27.956Z,99.90
2023-05-13T21:10:57.230Z,99.90
2023-05-13T21:13:25.855Z,99.90
2023-05-13T21:15:55.734Z,99.90
2023-05-13T21:18:25.071Z,99.90
2023-05-13T21:20:53.333Z,99.90
2023-05-13T21:23:21.439Z,99.90
2023-05-13T21:25:50.529Z,99.90
2023-05-13T21:28:19.207Z,99.90
2023-05-13T21:30:47.715Z,99.90
2023-05-13T21:33:19.543Z,99.90
2023-05-13T21:35:48.951Z,99.90
2023-05-13T21:38:16.958Z,99.90
2023-05-13T21:40:45.371Z,99.90
2023-05-13T21:43:13.628Z,99.90
2023-05-13T21:45:42.722Z,99.90
2023-05-13T21:48:11.307Z,99.90
2023-05-13T21:50:42.776Z,99.90
2023-05-13T21:53:11.463Z,99.90
2023-05-13T21:55:40.479Z,99.90
2023-05-13T21:58:08.979Z,99.90
2023-05-13T22:00:37.108Z,99.90
2023-05-13T22:03:06.184Z,99.90
2023-05-13T22:05:34.705Z,99.90
2023-05-13T22:08:04.466Z,99.90
2023-05-13T22:10:32.967Z,99.90
2023-05-13T22:13:01.576Z,99.90
2023-05-13T22:15:30.671Z,99.90
2023-05-13T22:17:58.915Z,99.90
2023-05-13T22:20:28.558Z,99.90
2023-05-13T22:22:56.887Z,99.90
2023-05-13T22:25:26.429Z,99.90
2023-05-13T22:27:55.167Z,99.90
2023-05-13T22:30:26.029Z,99.90
2023-05-13T22:32:56.601Z,99.90
2023-05-13T22:35:28.744Z,99.90
2023-05-13T22:37:57.630Z,99.90
2023-05-13T22:40:27.411Z,99.90
2023-05-13T22:42:55.848Z,99.90
2023-05-13T22:45:23.879Z,99.90
2023-05-13T22:47:53.677Z,99.90
2023-05-13T22:50:22.453Z,99.90
2023-05-13T22:52:50.841Z,99.90
2023-05-13T22:55:20.830Z,99.90
2023-05-13T22:57:52.644Z,99.90
2023-05-13T23:00:22.189Z,99.90
2023-05-13T23:02:50.466Z,99.90
2023-05-13T23:05:19.315Z,99.90
2023-05-13T23:07:47.821Z,99.90
2023-05-13T23:10:15.946Z,99.90
2023-05-13T23:12:45.288Z,99.90
2023-05-13T23:15:16.579Z,99.90
2023-05-13T23:17:45.144Z,99.90
2023-05-13T23:20:17.606Z,99.90
2023-05-13T23:22:48.609Z,99.90
2023-05-13T23:25:16.968Z,99.90
2023-05-13T23:27:44.959Z,99.90
2023-05-13T23:30:16.485Z,99.90
2023-05-13T23:32:44.801Z,99.90
2023-05-13T23:35:13.734Z,99.90
2023-05-13T23:37:41.919Z,99.90
2023-05-13T23:40:10.770Z,99.90
2023-05-13T23:42:40.121Z,99.90
2023-05-13T23:45:09.480Z,99.90
2023-05-13T23:47:41.773Z,99.90
2023-05-13T23:50:13.055Z,99.90
2023-05-13T23:52:41.078Z,99.90
2023-05-13T23:55:10.914Z,99.90
2023-05-13T23:57:39.586Z,99.90
